EGQL/ADX METAR and TAF weather

Enter ICAO airport designator
Station Type Date Time Source
EGQL METAR 2018/10/16 20:50 UTC NOAA

EGQL 162050Z 23010KT 9999 FEW042 11/10 Q1008 BLU


Station Type Date Time Source
EGQL Decoded METAR 2018/10/16 20:50 UTC NOAA

Leuchars, United Kingdom (EGQL) 56-23N 002-52W 0M
Oct 16, 2018 - 04:50 PM EDT / 2018.10.16 2050 UTC
Wind: from the SW (230 degrees) at 12 MPH (10 KT):0
Visibility: greater than 7 mile(s):0
Sky conditions: mostly clear
Temperature: 51 F (11 C)
Dew Point: 50 F (10 C)
Relative Humidity: 93%
Pressure (altimeter): 29.77 in. Hg (1008 hPa)
ob: EGQL 162050Z 23010KT 9999 FEW042 11/10 Q1008 BLU
cycle: 21

Station Type Date Time Source
EGQL TAF 2011/07/27 06:03 UTC NOAA

TAF TAF
AMD EGQL 270424Z 2706/2724 14005KT 9999 BKN020 PROB30
TEMPO 2706/2708 SCT012
BECMG 2708/2710 SCT025


Example: see airport list